Details From KEGE - Eagle Co Rgnl
To KPDK - Dekalb Peachtree
Flight Number -
Tags Real Decoded
Created
Modified
Stats Distance 1,138 nm / 2,108 km
Max Altitude 0 ft / 0 m
Waypoints 2
Social Downloads 0
Likes 0
Share VATSIM

Download

Looking for another format? Having issues loading an existing format? Contact us
Advertisement - Login to hide

Notes

Decoded

Route

KEGE KPDK

ID Type Via Altitude Latitude Longitude Leg Dist Tot Dist Heading (true) Name
O KEGE APT - 0 ft / 0 m 39.64472˚ -106.92333˚ - 0 nm - EAGLE CO RGNL
O KPDK APT - 0 ft / 0 m 33.87368˚ -84.30737˚ 1138 nm 1138 nm 101° / 114° -

Altitude Profile

Advertisement - Login to hide

Weather


0- 5 10 15 20 25 30 35+ Temperature / ° C

Clouds and Precipitation
Forecast for 2018-01-24 12:00 UTC. Updated 14 minutes ago

Ground ~20,000 ft ~40,000 ft Winds

KEGE

Details ICAO KEGE (EGE)
Name EAGLE CO RGNL
Region United States
Timezone America/Denver (UTC-7.0)
Stats Elevation 6,540 ft / 1,993 m (AMSL)
Location 39.642567° -106.917696°
Runways 1
Magnetic Variation 9.154° E

METAR

KEGE 240656Z AUTO 11003KT 10SM CLR M11/M14 A3042 RMK AO2 SLP373 T11111139 FZRANO

Decode

TAF

TAF KEGE 240520Z 2406/2506 VRB04KT P6SM FEW250 AMD LTD TO CLD VIS AND WIND TIL 241400

Decode

Departure Runways

ID Width Length Bearing (true) Bearing (mag) Surface Threshold Offset Overrun Length
07 150 ft / 46 m 7,981 ft / 2,433 m 81.90° 72.75° Asphalt 0 ft / 0 m 0 ft / 0 m
25 150 ft / 46 m 7,981 ft / 2,433 m 261.92° 252.77° Asphalt 0 ft / 0 m 0 ft / 0 m

KPDK

Details ICAO KPDK (PDK)
Name Dekalb Peachtree
Region United States
Timezone America/New_York (UTC-5.0)
Stats Elevation 1,003 ft / 306 m (AMSL)
Location 33.875424° -84.302177°
Runways 4
Magnetic Variation 5.223° W

METAR

KPDK 240653Z AUTO 32012KT 10SM CLR 03/M03 A3016 RMK AO2 SLP218 T00281028

Decode

TAF

KPDK 240527Z 2406/2506 30006KT P6SM SKC FM241500 30012G20KT P6SM SCT250 FM242300 31009KT P6SM SKC

Decode

Destination Runways

ID Width Length Bearing (true) Bearing (mag) Surface Threshold Offset Overrun Length
02L 151 ft / 46 m 3,754 ft / 1,144 m 20.43° 25.65° Asphalt 0 ft / 0 m 0 ft / 0 m
02R 98 ft / 30 m 6,014 ft / 1,833 m 20.42° 25.64° Concrete 0 ft / 0 m 0 ft / 0 m
09 151 ft / 46 m 3,402 ft / 1,037 m 86.38° 91.60° Asphalt 0 ft / 0 m 0 ft / 0 m
16 151 ft / 46 m 3,976 ft / 1,212 m 157.48° 162.70° Asphalt 0 ft / 0 m 0 ft / 0 m
20L 98 ft / 30 m 6,014 ft / 1,833 m 200.42° 205.64° Concrete 1,001 ft / 305 m 0 ft / 0 m
20R 151 ft / 46 m 3,754 ft / 1,144 m 200.43° 205.65° Asphalt 0 ft / 0 m 0 ft / 0 m
27 151 ft / 46 m 3,402 ft / 1,037 m 266.39° 271.61° Asphalt 0 ft / 0 m 0 ft / 0 m
34 151 ft / 46 m 3,976 ft / 1,212 m 337.49° 342.71° Asphalt 0 ft / 0 m 0 ft / 0 m

Approach Navaids

Runway Type Ident Frequency Range Bearing (true) Bearing (mag) Slope Elevation
20L Localiser IPDK 111.10 MHz 18 nm / 33 km 200.42° 205.64° - 989 ft / 301 m (AMSL)
20L Glidescope IPDK 111.10 MHz 10 nm / 19 km 200.42° 205.64° 3.00° 984 ft / 300 m (AMSL)